CheckWX is a tool to help pilots better visualize weather data.  It is not intended as a substitute for an official pre-flight weather briefing.

11:59:55 UTC

KPIR TAF
Pierre Regional Airport
Pierre, South Dakota, USA
KPIR 031123Z 0312/0412 32010KT P6SM BKN015 FM031500 31010KT P6SM SKC FM040000 VRB04KT P6SM SKC

Apr-3@
12:00 UTC

Apr-3 @ 12:00 UTC

Apr-3@
15:00 UTC

Apr-3 @ 15:00 UTC

TAF KPIR 031123Z 0312/0412 32010KT P6SM BKN015

Expired

Wind
  • 320° at 10 KTS
Cloud Levels
  • Broken at 1,500' AGL

Apr-3@
15:00 UTC

Apr-3 @ 15:00 UTC

Apr-4@
00:00 UTC

Apr-4 @ 00:00 UTC

FM031500 31010KT P6SM SKC

Expired

Wind
  • 310° at 10 KTS
Cloud Levels
  • Clear skies

Apr-4@
00:00 UTC

Apr-4 @ 00:00 UTC

Apr-4@
12:00 UTC

Apr-4 @ 12:00 UTC

FM040000 VRB04KT P6SM SKC

From

From Standard forecast or significant change

Wind
  • Variable at 4 KTS
Cloud Levels
  • Clear skies